createdAt,value
2017-04-27T00:01:06.844Z,12.14
2017-04-27T00:03:35.768Z,11.22
2017-04-27T00:06:04.663Z,12.26
2017-04-27T00:08:33.579Z,14.92
2017-04-27T00:11:02.473Z,17.16
2017-04-27T00:13:32.136Z,12.34
2017-04-27T00:16:01.034Z,12.60
2017-04-27T00:18:29.927Z,11.96
2017-04-27T00:20:58.837Z,15.50
2017-04-27T00:23:27.725Z,12.42
2017-04-27T00:25:56.654Z,12.96
2017-04-27T00:28:25.548Z,11.84
2017-04-27T00:30:55.184Z,12.28
2017-04-27T00:33:24.112Z,12.28
2017-04-27T00:35:53.007Z,12.88
2017-04-27T00:38:21.886Z,13.36
2017-04-27T00:40:50.810Z,10.96
2017-04-27T00:43:20.437Z,14.44
2017-04-27T00:45:49.327Z,10.80
2017-04-27T00:48:18.233Z,11.82
2017-04-27T00:50:47.134Z,11.80
2017-04-27T00:53:16.153Z,13.24
2017-04-27T00:55:45.050Z,11.60
2017-04-27T00:58:13.936Z,16.38
2017-04-27T01:00:42.861Z,11.44
2017-04-27T01:03:12.488Z,10.76
2017-04-27T01:05:41.414Z,10.82
2017-04-27T01:08:10.300Z,16.04
2017-04-27T01:10:39.279Z,12.10
2017-04-27T01:13:08.205Z,10.72
2017-04-27T01:15:37.094Z,11.08
2017-04-27T01:18:05.985Z,11.98
2017-04-27T01:20:34.921Z,11.48
2017-04-27T01:23:03.812Z,12.34
2017-04-27T01:25:32.703Z,11.72
2017-04-27T01:28:01.622Z,12.36
2017-04-27T01:30:30.516Z,12.16
2017-04-27T01:32:59.442Z,12.48
2017-04-27T01:35:28.329Z,10.62
2017-04-27T01:37:57.216Z,13.02
2017-04-27T01:40:26.149Z,13.58
2017-04-27T01:42:55.038Z,11.38
2017-04-27T01:45:23.932Z,13.30
2017-04-27T01:47:53.158Z,12.22
2017-04-27T01:50:22.049Z,11.48
2017-04-27T01:52:50.939Z,12.34
2017-04-27T01:55:19.859Z,15.36
2017-04-27T01:57:48.759Z,12.78
2017-04-27T02:00:17.777Z,12.22
2017-04-27T02:02:47.400Z,13.20
2017-04-27T02:05:16.290Z,15.28
2017-04-27T02:07:45.302Z,13.02
2017-04-27T02:10:14.195Z,12.76
2017-04-27T02:12:43.086Z,12.26
2017-04-27T02:15:11.997Z,13.44
2017-04-27T02:17:40.881Z,13.96
2017-04-27T02:20:09.807Z,12.84
2017-04-27T02:22:39.437Z,13.20
2017-04-27T02:25:08.330Z,13.44
2017-04-27T02:27:37.399Z,13.66
2017-04-27T02:30:06.312Z,12.74
2017-04-27T02:32:35.197Z,12.38
2017-04-27T02:35:04.220Z,14.56
2017-04-27T02:37:33.141Z,15.52
2017-04-27T02:40:02.033Z,16.08
2017-04-27T02:42:30.954Z,16.58
2017-04-27T02:45:00.584Z,16.50
2017-04-27T02:47:29.473Z,18.62
2017-04-27T02:49:58.453Z,19.18
2017-04-27T02:52:27.349Z,22.52
2017-04-27T02:54:56.242Z,18.58
2017-04-27T02:57:25.171Z,21.72
2017-04-27T02:59:54.066Z,23.84
2017-04-27T03:02:22.957Z,21.48
2017-04-27T03:04:51.885Z,21.74
2017-04-27T03:07:20.772Z,23.22
2017-04-27T03:09:49.693Z,21.10
2017-04-27T03:12:18.713Z,18.48
2017-04-27T03:14:47.601Z,18.88
2017-04-27T03:17:16.493Z,20.00
2017-04-27T03:19:45.410Z,17.26
2017-04-27T03:22:14.306Z,17.44
2017-04-27T03:24:43.197Z,17.64
2017-04-27T03:27:12.113Z,18.88
2017-04-27T03:29:41.745Z,16.66
2017-04-27T03:32:10.630Z,20.14
2017-04-27T03:34:39.566Z,19.04
2017-04-27T03:37:08.472Z,20.78
2017-04-27T03:39:37.374Z,19.92
2017-04-27T03:42:07.138Z,18.00
2017-04-27T03:44:36.025Z,18.74
2017-04-27T03:47:04.918Z,21.96
2017-04-27T03:49:33.830Z,20.76
2017-04-27T03:52:02.846Z,20.54
2017-04-27T03:54:31.717Z,18.06
2017-04-27T03:57:00.609Z,21.78
2017-04-27T03:59:29.633Z,17.82
2017-04-27T04:01:59.264Z,18.34
2017-04-27T04:04:28.549Z,18.96
2017-04-27T04:06:57.575Z,21.38
2017-04-27T04:09:26.466Z,19.68
2017-04-27T04:11:55.358Z,20.24
2017-04-27T04:14:24.374Z,21.68
2017-04-27T04:16:54.151Z,21.92
2017-04-27T04:19:23.066Z,20.86
2017-04-27T04:21:52.009Z,18.94
2017-04-27T04:24:21.649Z,21.72
2017-04-27T04:26:50.537Z,22.02
2017-04-27T04:29:19.469Z,21.20
2017-04-27T04:31:48.368Z,19.24
2017-04-27T04:34:17.294Z,20.30
2017-04-27T04:36:46.182Z,18.96
2017-04-27T04:39:15.813Z,21.50
2017-04-27T04:41:44.741Z,19.42
2017-04-27T04:44:13.631Z,18.70
2017-04-27T04:46:42.522Z,17.86
2017-04-27T04:49:11.613Z,16.48
2017-04-27T04:51:40.589Z,18.80
2017-04-27T04:54:09.509Z,17.52
2017-04-27T04:56:38.516Z,17.24
2017-04-27T04:59:08.153Z,17.24
2017-04-27T05:01:37.041Z,18.92
2017-04-27T05:04:05.961Z,14.50
2017-04-27T05:06:34.844Z,21.32
2017-04-27T05:09:03.735Z,16.66
2017-04-27T05:11:32.659Z,15.70
2017-04-27T05:14:01.545Z,19.30
2017-04-27T05:16:30.425Z,16.82
2017-04-27T05:18:59.605Z,18.72
2017-04-27T05:21:28.598Z,15.70
2017-04-27T05:23:57.577Z,17.64
2017-04-27T05:26:26.500Z,14.96
2017-04-27T05:28:55.417Z,17.36
2017-04-27T05:31:24.344Z,18.52
2017-04-27T05:36:31.289Z,15.30
2017-04-27T05:39:00.409Z,17.02
2017-04-27T05:41:29.303Z,15.50
2017-04-27T05:43:58.186Z,14.42
2017-04-27T05:46:27.117Z,17.14
2017-04-27T05:48:56.037Z,16.36
2017-04-27T05:51:24.902Z,16.04
2017-04-27T05:53:53.833Z,15.00
2017-04-27T05:56:22.717Z,12.66
2017-04-27T05:58:51.615Z,12.50
2017-04-27T06:01:20.537Z,15.00
2017-04-27T06:03:50.180Z,18.08
2017-04-27T06:06:19.066Z,16.02
2017-04-27T06:08:47.995Z,14.92
2017-04-27T06:11:17.162Z,13.06
2017-04-27T06:13:46.142Z,13.66
2017-04-27T06:16:15.174Z,14.44
2017-04-27T06:18:44.059Z,16.40
2017-04-27T06:21:12.953Z,17.28
2017-04-27T06:23:41.960Z,14.56
2017-04-27T06:26:10.853Z,15.32
2017-04-27T06:28:39.748Z,12.86
2017-04-27T06:31:08.674Z,13.84
2017-04-27T06:33:37.564Z,13.74
2017-04-27T06:36:06.450Z,13.28
2017-04-27T06:38:35.381Z,13.78
2017-04-27T06:41:04.269Z,13.40
2017-04-27T06:43:33.173Z,13.36
2017-04-27T06:46:02.095Z,15.16
2017-04-27T06:48:31.726Z,16.52
2017-04-27T06:51:00.627Z,13.76
2017-04-27T06:53:29.539Z,13.34
2017-04-27T06:55:58.464Z,13.42
2017-04-27T06:58:27.358Z,13.46
2017-04-27T07:00:56.249Z,13.38
2017-04-27T07:03:25.273Z,13.72
2017-04-27T07:05:54.164Z,12.90
2017-04-27T07:08:23.059Z,13.34
2017-04-27T07:10:52.078Z,14.16
2017-04-27T07:13:20.964Z,13.84
2017-04-27T07:15:49.848Z,15.22
2017-04-27T07:18:18.764Z,14.56
2017-04-27T07:20:47.656Z,13.74
2017-04-27T07:23:16.557Z,13.48
2017-04-27T07:25:45.505Z,13.64
2017-04-27T07:28:14.402Z,14.82
2017-04-27T07:30:43.289Z,13.58
2017-04-27T07:33:12.205Z,12.24
2017-04-27T07:35:41.090Z,14.54
2017-04-27T07:38:10.015Z,14.70
2017-04-27T07:40:38.955Z,12.60
2017-04-27T07:43:07.845Z,13.32
2017-04-27T07:45:36.740Z,13.66
2017-04-27T07:48:05.759Z,15.48
2017-04-27T07:50:34.650Z,14.36
2017-04-27T07:53:03.536Z,13.04
2017-04-27T07:55:32.553Z,12.08
2017-04-27T07:58:01.460Z,12.50
2017-04-27T08:00:30.346Z,11.04
2017-04-27T08:02:59.277Z,11.62
2017-04-27T08:05:28.167Z,11.58
2017-04-27T08:07:57.048Z,11.64
2017-04-27T08:10:25.974Z,14.04
2017-04-27T08:12:54.869Z,13.64
2017-04-27T08:15:23.760Z,11.58
2017-04-27T08:17:52.684Z,11.20
2017-04-27T08:20:21.589Z,13.82
2017-04-27T08:22:51.217Z,11.58
2017-04-27T08:25:20.141Z,10.92
2017-04-27T08:27:49.037Z,13.70
2017-04-27T08:30:19.533Z,10.88
2017-04-27T08:32:48.552Z,11.04
2017-04-27T08:35:17.427Z,9.14
2017-04-27T08:37:46.315Z,11.10
2017-04-27T08:40:15.223Z,9.04
2017-04-27T08:42:44.102Z,8.68
2017-04-27T08:45:12.985Z,8.26
2017-04-27T08:47:41.910Z,7.74
2017-04-27T08:50:10.793Z,8.96
2017-04-27T08:52:39.681Z,7.12
2017-04-27T08:55:08.594Z,7.92
2017-04-27T08:57:37.473Z,7.64
2017-04-27T09:00:06.350Z,7.44
2017-04-27T09:02:35.361Z,7.48
2017-04-27T09:05:04.360Z,6.44
2017-04-27T09:07:33.241Z,7.96
2017-04-27T09:10:02.167Z,7.34
2017-04-27T09:12:31.901Z,7.70
2017-04-27T09:15:00.812Z,6.54
2017-04-27T09:17:29.738Z,7.06
2017-04-27T09:19:58.622Z,4.68
2017-04-27T09:22:27.549Z,6.64
2017-04-27T09:24:56.706Z,8.32
2017-04-27T09:27:25.612Z,6.18
2017-04-27T09:29:54.525Z,5.80
2017-04-27T09:32:24.285Z,8.14
2017-04-27T09:34:53.178Z,7.94
2017-04-27T09:37:22.073Z,7.44
2017-04-27T09:39:51.065Z,7.62
2017-04-27T09:42:19.974Z,7.24
2017-04-27T09:44:48.856Z,6.82
2017-04-27T09:47:17.782Z,6.54
2017-04-27T09:49:47.408Z,6.48
2017-04-27T09:52:16.294Z,3.94
2017-04-27T09:54:45.524Z,4.90
2017-04-27T09:57:14.407Z,5.00
2017-04-27T09:59:43.317Z,4.78
2017-04-27T10:02:12.324Z,5.00
2017-04-27T10:04:41.212Z,6.06
2017-04-27T10:07:10.157Z,5.60
2017-04-27T10:09:39.080Z,5.22
2017-04-27T10:12:07.970Z,5.18
2017-04-27T10:14:36.855Z,4.64
2017-04-27T10:17:05.813Z,3.78
2017-04-27T10:19:34.709Z,3.56
2017-04-27T10:22:03.632Z,5.22
2017-04-27T10:24:32.521Z,6.06
2017-04-27T10:27:01.398Z,4.32
2017-04-27T10:29:30.409Z,3.84
2017-04-27T10:31:59.328Z,3.34
2017-04-27T10:34:28.213Z,2.98
2017-04-27T10:36:57.133Z,3.94
2017-04-27T10:39:26.756Z,3.28
2017-04-27T10:41:55.639Z,4.16
2017-04-27T10:44:25.385Z,5.80
2017-04-27T10:46:54.265Z,3.84
2017-04-27T10:49:23.261Z,13.96
2017-04-27T10:51:52.212Z,3.60
2017-04-27T10:54:21.836Z,3.56
2017-04-27T10:56:50.721Z,3.12
2017-04-27T10:59:19.640Z,3.50
2017-04-27T11:01:48.516Z,3.50
2017-04-27T11:04:17.403Z,3.16
2017-04-27T11:06:46.409Z,3.02
2017-04-27T11:09:15.293Z,2.64
2017-04-27T11:11:44.177Z,4.50
2017-04-27T11:14:13.101Z,7.84
2017-04-27T11:16:41.986Z,2.32
2017-04-27T11:19:10.865Z,3.62
2017-04-27T11:21:39.789Z,2.48
2017-04-27T11:24:08.776Z,1.82
2017-04-27T11:26:37.666Z,2.38
2017-04-27T11:29:06.841Z,1.96
2017-04-27T11:31:35.721Z,2.22
2017-04-27T11:34:04.605Z,2.36
2017-04-27T11:36:49.018Z,2.08
2017-04-27T11:39:02.405Z,1.92
2017-04-27T11:41:31.325Z,3.00
2017-04-27T11:44:00.313Z,1.96
2017-04-27T11:46:29.690Z,1.92
2017-04-27T11:48:58.619Z,1.86
2017-04-27T11:51:27.505Z,1.72
2017-04-27T11:53:56.388Z,2.10
2017-04-27T11:56:25.293Z,1.70
2017-04-27T11:58:54.184Z,1.62
2017-04-27T12:01:23.069Z,2.10
2017-04-27T12:03:52.146Z,2.86
2017-04-27T12:06:21.120Z,2.10
2017-04-27T12:08:50.017Z,2.38
2017-04-27T12:11:18.921Z,1.86
2017-04-27T12:13:48.054Z,2.16
2017-04-27T12:16:17.056Z,1.72
2017-04-27T12:18:46.678Z,2.04
2017-04-27T12:21:15.794Z,2.06
2017-04-27T12:23:44.677Z,1.72
2017-04-27T12:26:13.557Z,2.60
2017-04-27T12:28:42.573Z,2.42
2017-04-27T12:31:11.449Z,2.30
2017-04-27T12:33:40.340Z,2.16
2017-04-27T12:36:09.250Z,1.94
2017-04-27T12:38:38.133Z,2.46
2017-04-27T12:41:07.058Z,1.92
2017-04-27T12:43:35.936Z,2.60
2017-04-27T12:46:04.822Z,2.14
2017-04-27T12:48:33.742Z,2.06
2017-04-27T12:51:02.633Z,3.12
2017-04-27T12:53:31.514Z,3.00
2017-04-27T12:56:00.425Z,2.58
2017-04-27T12:58:30.053Z,2.80
2017-04-27T13:00:58.977Z,2.62
2017-04-27T13:03:27.892Z,2.62
2017-04-27T13:05:56.805Z,2.90
2017-04-27T13:08:25.727Z,2.40
2017-04-27T13:10:54.608Z,2.40
2017-04-27T13:13:23.493Z,2.72
2017-04-27T13:15:53.157Z,2.10
2017-04-27T13:18:22.042Z,2.42
2017-04-27T13:20:50.917Z,3.72
2017-04-27T13:23:19.821Z,3.16
2017-04-27T13:25:48.697Z,2.74
2017-04-27T13:28:17.585Z,3.58
2017-04-27T13:30:46.509Z,2.90
2017-04-27T13:33:15.388Z,3.02
2017-04-27T13:35:44.285Z,4.18
2017-04-27T13:38:13.204Z,1.94
2017-04-27T13:40:42.094Z,2.26
2017-04-27T13:43:11.732Z,2.18
2017-04-27T13:45:40.653Z,3.42
2017-04-27T13:48:09.537Z,2.76
2017-04-27T13:50:38.421Z,2.40
2017-04-27T13:53:07.336Z,1.94
2017-04-27T13:55:36.245Z,2.52
2017-04-27T13:58:05.167Z,2.16
2017-04-27T14:00:34.117Z,3.02
2017-04-27T14:03:02.995Z,2.52
2017-04-27T14:05:32.026Z,3.04
2017-04-27T14:08:01.646Z,3.44
2017-04-27T14:10:31.270Z,2.72
2017-04-27T14:13:00.201Z,2.44
2017-04-27T14:15:29.093Z,4.06
2017-04-27T14:17:57.977Z,3.64
2017-04-27T14:20:26.989Z,2.60
2017-04-27T14:22:55.889Z,3.46
2017-04-27T14:25:24.774Z,2.64
2017-04-27T14:27:53.685Z,3.18
2017-04-27T14:30:23.296Z,4.24
2017-04-27T14:32:52.970Z,3.14
2017-04-27T14:35:21.853Z,3.10
2017-04-27T14:37:50.734Z,3.00
2017-04-27T14:40:19.661Z,4.34
2017-04-27T14:42:48.546Z,3.36
2017-04-27T14:45:17.426Z,3.02
2017-04-27T14:47:46.350Z,3.44
2017-04-27T14:50:15.973Z,3.86
2017-04-27T14:52:44.849Z,3.62
2017-04-27T14:55:14.534Z,2.76
2017-04-27T14:57:43.434Z,2.20
2017-04-27T15:00:13.387Z,2.60
2017-04-27T15:02:42.310Z,3.28
2017-04-27T15:05:11.253Z,3.80
2017-04-27T15:07:41.034Z,7.12
2017-04-27T15:10:10.694Z,3.42
2017-04-27T15:12:40.005Z,3.18
2017-04-27T15:15:08.970Z,3.02
2017-04-27T15:17:37.866Z,3.94
2017-04-27T15:20:06.826Z,2.08
2017-04-27T15:22:35.830Z,2.50
2017-04-27T15:25:05.469Z,2.78
2017-04-27T15:27:34.357Z,2.62
2017-04-27T15:30:03.370Z,3.50
2017-04-27T15:32:32.259Z,3.30
2017-04-27T15:35:01.137Z,3.32
2017-04-27T15:37:30.057Z,2.88
2017-04-27T15:39:58.944Z,4.48
2017-04-27T15:42:27.968Z,3.00
2017-04-27T15:44:56.854Z,4.52
2017-04-27T15:47:25.733Z,6.02
2017-04-27T15:49:54.658Z,5.02
2017-04-27T15:52:24.318Z,4.08
2017-04-27T15:54:53.204Z,4.26
2017-04-27T15:57:22.403Z,4.12
2017-04-27T15:59:51.291Z,3.62
2017-04-27T16:02:20.201Z,3.32
2017-04-27T16:04:49.112Z,3.08
2017-04-27T16:07:18.062Z,4.58
2017-04-27T16:09:46.953Z,4.36
2017-04-27T16:12:15.849Z,4.30
2017-04-27T16:14:44.776Z,4.10
2017-04-27T16:17:13.670Z,4.06
2017-04-27T16:19:43.301Z,4.40
2017-04-27T16:22:12.222Z,4.42
2017-04-27T16:24:41.106Z,5.10
2017-04-27T16:27:09.989Z,4.34
2017-04-27T16:29:39.005Z,4.12
2017-04-27T16:32:07.905Z,3.88
2017-04-27T16:34:36.781Z,4.02
2017-04-27T16:37:05.788Z,4.80
2017-04-27T16:39:34.669Z,4.48
2017-04-27T16:42:03.570Z,4.02
2017-04-27T16:44:32.492Z,3.62
2017-04-27T16:47:02.146Z,3.84
2017-04-27T16:49:31.034Z,3.86
2017-04-27T16:52:00.102Z,3.78
2017-04-27T16:54:29.720Z,4.00
2017-04-27T16:56:58.622Z,3.86
2017-04-27T16:59:27.626Z,3.00
2017-04-27T17:01:56.542Z,2.60
2017-04-27T17:04:25.440Z,2.68
2017-04-27T17:06:54.413Z,2.92
2017-04-27T17:09:23.333Z,2.74
2017-04-27T17:11:53.013Z,1.92
2017-04-27T17:14:21.922Z,3.10
2017-04-27T17:16:50.838Z,2.83
2017-04-27T17:19:20.137Z,2.40
2017-04-27T17:21:49.834Z,2.94
2017-04-27T17:24:19.794Z,3.47
2017-04-27T17:26:48.721Z,2.98
2017-04-27T17:29:17.672Z,3.04
2017-04-27T17:31:47.289Z,2.22
2017-04-27T17:34:16.305Z,3.28
2017-04-27T17:36:45.272Z,2.98
2017-04-27T17:39:14.198Z,2.85
2017-04-27T17:41:43.118Z,4.07
2017-04-27T17:44:12.902Z,3.58
2017-04-27T17:46:41.865Z,3.63
2017-04-27T17:49:11.571Z,3.17
2017-04-27T17:51:40.486Z,3.10
2017-04-27T17:54:09.392Z,4.38
2017-04-27T17:56:38.325Z,3.90
2017-04-27T17:59:07.339Z,2.58
2017-04-27T18:01:36.246Z,3.02
2017-04-27T18:04:05.159Z,3.07
2017-04-27T18:06:34.124Z,2.18
2017-04-27T18:09:03.121Z,2.47
2017-04-27T18:11:32.037Z,3.13
2017-04-27T18:14:01.758Z,2.97
2017-04-27T18:16:30.657Z,3.67
2017-04-27T18:19:00.688Z,4.00
2017-04-27T18:21:30.330Z,4.37
2017-04-27T18:23:59.235Z,6.17
2017-04-27T18:26:28.263Z,4.45
2017-04-27T18:28:57.935Z,3.40
2017-04-27T18:31:26.912Z,4.93
2017-04-27T18:33:55.852Z,4.70
2017-04-27T18:36:24.959Z,3.98
2017-04-27T18:38:54.605Z,3.23
2017-04-27T18:41:23.517Z,3.85
2017-04-27T18:43:52.412Z,3.45
2017-04-27T18:46:21.426Z,5.27
2017-04-27T18:48:51.119Z,5.13
2017-04-27T18:51:19.997Z,3.67
2017-04-27T18:53:49.126Z,3.38
2017-04-27T18:56:18.016Z,3.48
2017-04-27T18:58:46.913Z,2.95
2017-04-27T19:01:15.925Z,3.43
2017-04-27T19:03:45.544Z,2.60
2017-04-27T19:06:14.430Z,2.77
2017-04-27T19:08:44.096Z,2.88
2017-04-27T19:11:12.973Z,2.70
2017-04-27T19:13:41.855Z,2.72
2017-04-27T19:16:10.946Z,2.35
2017-04-27T19:18:39.841Z,1.90
2017-04-27T19:21:08.717Z,2.07
2017-04-27T19:23:37.934Z,1.92
2017-04-27T19:26:07.049Z,2.87
2017-04-27T19:28:36.762Z,2.80
2017-04-27T19:31:05.686Z,2.45
2017-04-27T19:33:35.314Z,2.03
2017-04-27T19:36:04.197Z,2.45
2017-04-27T19:38:33.114Z,2.42
2017-04-27T19:41:01.993Z,1.77
2017-04-27T19:43:30.876Z,2.23
2017-04-27T19:45:59.793Z,1.73
2017-04-27T19:48:28.673Z,2.17
2017-04-27T19:50:57.564Z,2.05
2017-04-27T19:53:26.530Z,3.75
2017-04-27T19:55:55.409Z,2.23
2017-04-27T19:58:25.033Z,2.53
2017-04-27T20:00:53.959Z,2.43
2017-04-27T20:03:22.846Z,2.57
2017-04-27T20:05:51.738Z,2.20
2017-04-27T20:08:20.679Z,2.40
2017-04-27T20:10:50.333Z,2.33
2017-04-27T20:13:19.221Z,2.47
2017-04-27T20:15:48.129Z,2.73
2017-04-27T20:18:17.006Z,3.22
2017-04-27T20:20:46.198Z,2.85
2017-04-27T20:23:15.080Z,2.82
2017-04-27T20:25:43.959Z,2.82
2017-04-27T20:28:13.185Z,2.15
2017-04-27T20:30:42.056Z,2.42
2017-04-27T20:33:10.941Z,2.85
2017-04-27T20:35:40.148Z,2.70
2017-04-27T20:38:09.078Z,3.22
2017-04-27T20:40:37.966Z,3.22
2017-04-27T20:43:07.150Z,3.40
2017-04-27T20:45:36.038Z,3.62
2017-04-27T20:48:04.927Z,3.62
2017-04-27T20:50:33.936Z,2.23
2017-04-27T20:53:02.820Z,2.97
2017-04-27T20:55:31.714Z,3.87
2017-04-27T20:58:00.972Z,2.82
2017-04-27T21:00:29.869Z,2.55
2017-04-27T21:02:58.754Z,3.00
2017-04-27T21:05:27.653Z,2.52
2017-04-27T21:07:56.532Z,3.13
2017-04-27T21:10:25.437Z,3.00
2017-04-27T21:12:54.337Z,3.82
2017-04-27T21:15:23.226Z,2.20
2017-04-27T21:17:52.117Z,3.00
2017-04-27T21:20:21.298Z,2.70
2017-04-27T21:22:50.183Z,3.22
2017-04-27T21:25:19.067Z,3.80
2017-04-27T21:27:48.074Z,3.58
2017-04-27T21:30:16.952Z,3.63
2017-04-27T21:32:45.848Z,3.22
2017-04-27T21:35:14.764Z,3.47
2017-04-27T21:37:43.650Z,4.08
2017-04-27T21:40:12.537Z,3.62
2017-04-27T21:42:41.746Z,3.23
2017-04-27T21:45:10.635Z,4.13
2017-04-27T21:47:39.511Z,4.67
2017-04-27T21:50:08.449Z,3.85
2017-04-27T21:52:37.335Z,3.38
2017-04-27T21:55:06.785Z,4.17
2017-04-27T21:57:35.800Z,4.98
2017-04-27T22:00:04.679Z,4.18
2017-04-27T22:02:33.578Z,3.98
2017-04-27T22:05:02.492Z,3.55
2017-04-27T22:07:31.377Z,3.92
2017-04-27T22:10:00.257Z,3.93
2017-04-27T22:12:29.174Z,4.22
2017-04-27T22:14:58.058Z,4.78
2017-04-27T22:17:26.941Z,4.60
2017-04-27T22:19:55.866Z,3.77
2017-04-27T22:22:25.501Z,4.72
2017-04-27T22:24:54.381Z,3.62
2017-04-27T22:27:24.047Z,4.22
2017-04-27T22:29:52.912Z,3.95
2017-04-27T22:32:21.793Z,4.23
2017-04-27T22:34:50.725Z,4.50
2017-04-27T22:37:19.606Z,5.73
2017-04-27T22:39:48.481Z,4.95
2017-04-27T22:42:17.402Z,5.23
2017-04-27T22:44:46.281Z,3.97
2017-04-27T22:47:15.157Z,4.23
2017-04-27T22:49:44.169Z,3.43
2017-04-27T22:52:13.048Z,2.93
2017-04-27T22:54:41.933Z,3.80
2017-04-27T22:57:10.837Z,3.28
2017-04-27T22:59:39.758Z,3.10
2017-04-27T23:02:08.636Z,3.60
2017-04-27T23:04:37.529Z,2.70
2017-04-27T23:07:06.553Z,3.93
2017-04-27T23:09:35.760Z,3.10
2017-04-27T23:12:04.874Z,3.60
2017-04-27T23:14:33.797Z,3.05
2017-04-27T23:17:02.717Z,3.72
2017-04-27T23:19:31.633Z,3.65
2017-04-27T23:22:00.561Z,4.22
2017-04-27T23:24:29.445Z,4.87
2017-04-27T23:26:58.334Z,3.95
2017-04-27T23:29:27.257Z,4.65
2017-04-27T23:31:56.133Z,4.22
2017-04-27T23:34:25.019Z,4.00
2017-04-27T23:36:54.165Z,4.73
2017-04-27T23:39:23.046Z,3.90
2017-04-27T23:41:52.725Z,3.45
2017-04-27T23:44:21.606Z,3.00
2017-04-27T23:46:50.497Z,2.80
2017-04-27T23:49:19.473Z,3.90
2017-04-27T23:51:48.352Z,5.05
2017-04-27T23:54:17.243Z,3.67
2017-04-27T23:56:46.457Z,3.23
2017-04-27T23:59:15.348Z,3.60
